Time;durP1;ratioP1;P1;durP2;ratioP2;P2;SDS_P1;SDS_P2;PMS_P1;PMS_P2;Temp;Humidity;BMP_temperature;BMP_pressure;BME280_temperature;BME280_humidity;BME280_pressure;Samples;Min_cycle;Max_cycle;Signal;HPM_P1;HPM_P2
2022/10/04 00:01:24;;;;;;;15.80;8.00;;;;;;;;;;6191206;23;20013;-82
2022/10/04 00:04:02;;;;;;;15.65;7.63;;;;;;;;;;6190084;23;20076;-83
2022/10/04 00:06:29;;;;;;;18.23;8.27;;;;;;;;;;6166061;23;20029;-84
2022/10/04 00:08:59;;;;;;;18.75;7.97;;;;;;;;;;6128831;23;20073;-85
2022/10/04 00:11:28;;;;;;;21.05;8.60;;;;;;;;;;6129573;23;20034;-84
2022/10/04 00:13:56;;;;;;;21.88;7.93;;;;;;;;;;6129354;23;20033;-84
2022/10/04 00:16:30;;;;;;;17.10;7.72;;;;;;;;;;6129029;23;20081;-84
2022/10/04 00:19:01;;;;;;;18.33;8.00;;;;;;;;;;6128890;23;20026;-84
2022/10/04 00:21:47;;;;;;;17.15;8.05;;;;;;;;;;6128680;23;20485;-84
2022/10/04 00:24:20;;;;;;;19.00;8.73;;;;;;;;;;6129173;23;20045;-85
2022/10/04 00:26:46;;;;;;;16.40;8.02;;;;;;;;;;6163152;23;20030;-82
2022/10/04 00:29:25;;;;;;;18.50;9.32;;;;;;;;;;6138416;23;20940;-83
2022/10/04 00:32:07;;;;;;;17.35;9.05;;;;;;;;;;6138290;23;20022;-83
2022/10/04 00:34:47;;;;;;;17.65;8.30;;;;;;;;;;6163565;23;20026;-83
2022/10/04 00:37:14;;;;;;;23.60;9.00;;;;;;;;;;6138162;23;20028;-82
2022/10/04 00:39:45;;;;;;;17.65;9.20;;;;;;;;;;6164163;23;20033;-83
2022/10/04 00:42:22;;;;;;;14.48;8.77;;;;;;;;;;6138636;23;20010;-82
2022/10/04 00:44:55;;;;;;;19.38;9.50;;;;;;;;;;6138148;23;20029;-82
2022/10/04 00:47:33;;;;;;;17.73;8.98;;;;;;;;;;6136614;23;20033;-83
2022/10/04 00:50:12;;;;;;;18.10;9.07;;;;;;;;;;6137540;23;20471;-82
2022/10/04 00:52:41;;;;;;;20.08;10.10;;;;;;;;;;6164654;23;20017;-83
2022/10/04 00:55:09;;;;;;;18.23;10.00;;;;;;;;;;6139874;23;20030;-82
2022/10/04 00:57:41;;;;;;;25.38;11.02;;;;;;;;;;6163685;23;20010;-82
2022/10/04 01:00:12;;;;;;;17.73;9.88;;;;;;;;;;6139336;23;20014;-83
2022/10/04 01:02:44;;;;;;;19.20;10.45;;;;;;;;;;6137940;23;20037;-83
2022/10/04 01:05:25;;;;;;;17.95;10.52;;;;;;;;;;6164430;23;20036;-83
2022/10/04 01:08:03;;;;;;;22.52;10.73;;;;;;;;;;6138616;23;20022;-83
2022/10/04 01:10:39;;;;;;;22.05;10.80;;;;;;;;;;6163208;23;20022;-82
2022/10/04 01:13:12;;;;;;;20.10;10.93;;;;;;;;;;6164377;23;20025;-82
2022/10/04 01:15:58;;;;;;;24.40;11.68;;;;;;;;;;6156559;23;20111;-84
2022/10/04 01:18:24;;;;;;;20.98;10.27;;;;;;;;;;6128820;23;20026;-84
2022/10/04 01:20:56;;;;;;;19.83;10.95;;;;;;;;;;6127848;23;20065;-84
2022/10/04 01:23:39;;;;;;;26.23;11.57;;;;;;;;;;6155643;23;20485;-84
2022/10/04 01:26:25;;;;;;;20.90;11.05;;;;;;;;;;6155401;23;20026;-85
2022/10/04 01:28:52;;;;;;;22.33;12.18;;;;;;;;;;6154708;23;20030;-85
2022/10/04 01:31:19;;;;;;;22.77;11.77;;;;;;;;;;6126817;23;20026;-84
2022/10/04 01:33:46;;;;;;;25.95;11.43;;;;;;;;;;6127897;23;20037;-84
2022/10/04 01:36:13;;;;;;;20.63;11.70;;;;;;;;;;6129437;23;20022;-82
2022/10/04 01:38:39;;;;;;;20.25;11.77;;;;;;;;;;6137747;23;20037;-82
2022/10/04 01:41:07;;;;;;;21.38;11.50;;;;;;;;;;6137682;23;20018;-83
2022/10/04 01:43:36;;;;;;;23.27;12.48;;;;;;;;;;6163820;23;20026;-82
2022/10/04 01:46:06;;;;;;;20.95;12.55;;;;;;;;;;6138694;23;20024;-82
2022/10/04 01:48:35;;;;;;;24.13;12.25;;;;;;;;;;6164073;23;20068;-83
2022/10/04 01:51:04;;;;;;;21.55;12.27;;;;;;;;;;6135916;23;20037;-82
2022/10/04 01:53:34;;;;;;;21.52;12.52;;;;;;;;;;6137919;23;20026;-82
2022/10/04 01:56:03;;;;;;;23.88;11.73;;;;;;;;;;6139190;23;21287;-83
2022/10/04 01:58:33;;;;;;;22.60;12.02;;;;;;;;;;6140245;23;20125;-82
2022/10/04 02:01:05;;;;;;;20.25;11.73;;;;;;;;;;6138243;23;20046;-83
2022/10/04 02:03:34;;;;;;;26.80;13.70;;;;;;;;;;6139170;23;20072;-82
2022/10/04 02:06:02;;;;;;;22.98;11.95;;;;;;;;;;6165119;23;20066;-83
2022/10/04 02:08:30;;;;;;;22.02;11.40;;;;;;;;;;6139588;23;20518;-82
2022/10/04 02:10:57;;;;;;;22.75;12.32;;;;;;;;;;6136750;23;20018;-84
2022/10/04 02:13:26;;;;;;;23.38;11.25;;;;;;;;;;6129300;23;20030;-84
2022/10/04 02:15:53;;;;;;;23.35;11.85;;;;;;;;;;6155046;23;20063;-85
2022/10/04 02:18:20;;;;;;;19.60;11.35;;;;;;;;;;6129488;23;20503;-84
2022/10/04 02:20:47;;;;;;;20.13;11.00;;;;;;;;;;6128730;23;20106;-84
2022/10/04 02:23:15;;;;;;;22.50;11.73;;;;;;;;;;6155711;23;20026;-83
2022/10/04 02:25:42;;;;;;;19.17;11.05;;;;;;;;;;6127870;23;21017;-82
2022/10/04 02:28:09;;;;;;;19.98;11.60;;;;;;;;;;6128309;23;20085;-84
2022/10/04 02:30:37;;;;;;;23.60;12.15;;;;;;;;;;6127415;23;20030;-83
2022/10/04 02:33:03;;;;;;;23.33;12.30;;;;;;;;;;6128182;23;20026;-82
2022/10/04 02:35:34;;;;;;;22.95;11.95;;;;;;;;;;6154940;23;20349;-83
2022/10/04 02:38:05;;;;;;;25.42;11.52;;;;;;;;;;6133477;23;20110;-82
2022/10/04 02:40:52;;;;;;;19.10;11.35;;;;;;;;;;6136834;23;20058;-83
2022/10/04 02:43:33;;;;;;;20.58;11.57;;;;;;;;;;6138475;23;20025;-83
2022/10/04 02:46:06;;;;;;;21.58;12.00;;;;;;;;;;6162965;23;20719;-83
2022/10/04 02:48:36;;;;;;;35.65;14.55;;;;;;;;;;6133300;23;20029;-83
2022/10/04 02:51:13;;;;;;;20.92;12.68;;;;;;;;;;6133685;23;20021;-85
2022/10/04 02:53:48;;;;;;;25.52;12.82;;;;;;;;;;6160490;23;20033;-83
2022/10/04 02:56:15;;;;;;;25.08;14.27;;;;;;;;;;6160804;23;20435;-87
2022/10/04 02:58:42;;;;;;;27.92;14.45;;;;;;;;;;6134294;23;20030;-83
2022/10/04 03:01:14;;;;;;;25.10;13.98;;;;;;;;;;6132769;23;20033;-82
2022/10/04 03:03:44;;;;;;;27.75;13.68;;;;;;;;;;6160951;23;20029;-86
2022/10/04 03:06:13;;;;;;;21.58;13.55;;;;;;;;;;6159067;23;20066;-82
2022/10/04 03:08:42;;;;;;;25.35;13.45;;;;;;;;;;6160124;23;20030;-82
2022/10/04 03:11:09;;;;;;;21.98;12.38;;;;;;;;;;6133380;23;20057;-81
2022/10/04 03:13:38;;;;;;;24.83;12.18;;;;;;;;;;6134695;23;20029;-82
2022/10/04 03:16:04;;;;;;;27.33;13.00;;;;;;;;;;6160883;23;20029;-84
2022/10/04 03:18:31;;;;;;;25.80;12.77;;;;;;;;;;6133636;23;20029;-82
2022/10/04 03:21:00;;;;;;;19.77;11.70;;;;;;;;;;6158881;23;20018;-86
2022/10/04 03:23:29;;;;;;;19.60;12.27;;;;;;;;;;6161487;23;20022;-82
2022/10/04 03:25:59;;;;;;;21.33;13.05;;;;;;;;;;6136331;23;20021;-85
2022/10/04 03:28:27;;;;;;;21.27;11.88;;;;;;;;;;6134704;23;20025;-84
2022/10/04 03:30:54;;;;;;;21.98;11.27;;;;;;;;;;6159295;23;20036;-86
2022/10/04 03:33:22;;;;;;;22.23;11.82;;;;;;;;;;6160283;23;20472;-84
2022/10/04 03:35:53;;;;;;;21.15;11.90;;;;;;;;;;6133827;23;20029;-83
2022/10/04 03:38:21;;;;;;;20.95;11.93;;;;;;;;;;6159910;23;20064;-81
2022/10/04 03:40:51;;;;;;;25.50;12.13;;;;;;;;;;6133802;23;20073;-82
2022/10/04 03:43:19;;;;;;;20.20;11.70;;;;;;;;;;6158963;23;20089;-81
2022/10/04 03:45:45;;;;;;;18.25;11.63;;;;;;;;;;6133868;23;20030;-81
2022/10/04 03:48:13;;;;;;;18.83;11.52;;;;;;;;;;6132429;23;20022;-80
2022/10/04 03:50:47;;;;;;;18.50;10.18;;;;;;;;;;6134340;23;20490;-82
2022/10/04 03:53:22;;;;;;;18.83;10.98;;;;;;;;;;6133707;23;20033;-82
2022/10/04 03:55:48;;;;;;;23.65;11.93;;;;;;;;;;6159328;23;20030;-81
2022/10/04 03:58:16;;;;;;;23.05;11.48;;;;;;;;;;6134551;23;20075;-81
2022/10/04 04:00:55;;;;;;;16.65;10.18;;;;;;;;;;6133141;23;20018;-81
2022/10/04 04:03:25;;;;;;;21.52;11.30;;;;;;;;;;6133298;23;20092;-84
2022/10/04 04:05:53;;;;;;;23.88;12.60;;;;;;;;;;6150996;23;21268;-81
2022/10/04 04:08:25;;;;;;;20.17;10.82;;;;;;;;;;6186845;23;20474;-82
2022/10/04 04:10:53;;;;;;;17.90;10.85;;;;;;;;;;6187892;23;20025;-81
2022/10/04 04:13:26;;;;;;;18.73;11.13;;;;;;;;;;6188489;23;20029;-82
2022/10/04 04:15:53;;;;;;;20.70;10.65;;;;;;;;;;6188267;23;20026;-83
2022/10/04 04:18:24;;;;;;;23.58;11.57;;;;;;;;;;6186431;23;20025;-83
2022/10/04 04:20:52;;;;;;;17.88;11.15;;;;;;;;;;6187037;23;20030;-83
2022/10/04 04:23:22;;;;;;;19.77;11.85;;;;;;;;;;6189404;23;20024;-84
2022/10/04 04:25:53;;;;;;;22.55;12.00;;;;;;;;;;6188671;23;20033;-81
2022/10/04 04:28:19;;;;;;;;;;;;;;;;;;6186996;23;20037;-86
2022/10/04 04:30:47;;;;;;;24.65;11.20;;;;;;;;;;6187771;23;46825;-83
2022/10/04 04:33:20;;;;;;;21.52;10.70;;;;;;;;;;6188847;23;20398;-85
2022/10/04 04:35:46;;;;;;;20.63;10.90;;;;;;;;;;6187565;23;20098;-84
2022/10/04 04:38:15;;;;;;;20.63;11.65;;;;;;;;;;6187108;23;20088;-81
2022/10/04 04:40:41;;;;;;;22.73;11.77;;;;;;;;;;6187994;23;20017;-84
2022/10/04 04:43:11;;;;;;;19.75;10.75;;;;;;;;;;6189374;23;20017;-84
2022/10/04 04:45:38;;;;;;;24.03;12.23;;;;;;;;;;6189794;23;20040;-83
2022/10/04 04:48:05;;;;;;;21.52;12.32;;;;;;;;;;6189003;22;20296;-84
2022/10/04 04:50:34;;;;;;;25.15;11.65;;;;;;;;;;6188581;23;20025;-84
2022/10/04 04:53:11;;;;;;;26.08;13.13;;;;;;;;;;6188300;23;20149;-84
2022/10/04 04:55:46;;;;;;;27.08;12.43;;;;;;;;;;6191215;23;20029;-83
2022/10/04 04:58:32;;;;;;;24.17;11.77;;;;;;;;;;6185685;23;20030;-84
2022/10/04 05:01:00;;;;;;;23.85;12.45;;;;;;;;;;6183610;23;20322;-84
2022/10/04 05:03:30;;;;;;;26.60;12.93;;;;;;;;;;6184368;23;20035;-81
2022/10/04 05:05:57;;;;;;;30.70;13.25;;;;;;;;;;6181515;23;20100;-82
2022/10/04 05:08:26;;;;;;;23.35;12.57;;;;;;;;;;6180567;23;20025;-82
2022/10/04 05:11:02;;;;;;;20.67;11.88;;;;;;;;;;6181830;23;20032;-84
2022/10/04 05:13:41;;;;;;;23.42;12.75;;;;;;;;;;6181404;23;20030;-83
2022/10/04 05:16:12;;;;;;;21.55;12.20;;;;;;;;;;6181347;23;20080;-81
2022/10/04 05:18:38;;;;;;;24.20;13.80;;;;;;;;;;6180423;23;20154;-82
2022/10/04 05:21:07;;;;;;;23.58;12.48;;;;;;;;;;6181683;23;20553;-82
2022/10/04 05:23:33;;;;;;;21.73;12.88;;;;;;;;;;6181611;23;20025;-83
2022/10/04 05:26:02;;;;;;;21.23;12.25;;;;;;;;;;6180232;23;20037;-82
2022/10/04 05:28:29;;;;;;;24.40;12.45;;;;;;;;;;6180841;23;20033;-82
2022/10/04 05:31:08;;;;;;;22.05;12.52;;;;;;;;;;6182791;23;20026;-85
2022/10/04 05:33:48;;;;;;;21.25;12.57;;;;;;;;;;6182034;23;20037;-81
2022/10/04 05:36:28;;;;;;;22.25;12.55;;;;;;;;;;6182475;23;20469;-83
2022/10/04 05:39:01;;;;;;;24.90;13.73;;;;;;;;;;6181954;23;20045;-82
2022/10/04 05:41:28;;;;;;;26.30;13.95;;;;;;;;;;6183936;23;20040;-83
2022/10/04 05:43:58;;;;;;;;;;;;;;;;;;6180242;23;20034;-84
2022/10/04 05:46:27;;;;;;;28.35;13.35;;;;;;;;;;6181810;23;44658;-81
2022/10/04 05:49:09;;;;;;;22.38;12.85;;;;;;;;;;6181980;23;20036;-83
2022/10/04 05:51:47;;;;;;;30.80;15.00;;;;;;;;;;6185139;23;20033;-82
2022/10/04 05:54:17;;;;;;;33.75;14.60;;;;;;;;;;6181313;23;20025;-82
2022/10/04 05:57:01;;;;;;;30.83;15.50;;;;;;;;;;6181496;23;20067;-81
2022/10/04 05:59:39;;;;;;;26.50;14.70;;;;;;;;;;6181703;23;20061;-83
2022/10/04 06:02:28;;;;;;;24.33;13.70;;;;;;;;;;6183504;23;20034;-82
2022/10/04 06:05:16;;;;;;;27.65;14.60;;;;;;;;;;6182855;23;20580;-82
2022/10/04 06:07:43;;;;;;;24.65;14.57;;;;;;;;;;6183530;23;20025;-83
2022/10/04 06:10:28;;;;;;;32.17;16.00;;;;;;;;;;6182597;23;20029;-83
2022/10/04 06:12:58;;;;;;;31.42;15.80;;;;;;;;;;6182148;23;20026;-83
2022/10/04 06:15:38;;;;;;;31.27;15.40;;;;;;;;;;6181846;23;20064;-83
2022/10/04 06:18:24;;;;;;;28.97;14.83;;;;;;;;;;6182472;23;20454;-83
2022/10/04 06:20:56;;;;;;;27.23;14.63;;;;;;;;;;6182741;23;20032;-83
2022/10/04 06:23:25;;;;;;;23.95;13.95;;;;;;;;;;6183223;23;20040;-81
2022/10/04 06:25:54;;;;;;;27.67;14.10;;;;;;;;;;6182479;23;20032;-82
2022/10/04 06:28:23;;;;;;;25.25;13.20;;;;;;;;;;6183633;23;20716;-83
2022/10/04 06:30:53;;;;;;;28.05;14.18;;;;;;;;;;6181272;23;20029;-83
2022/10/04 06:33:28;;;;;;;26.60;14.85;;;;;;;;;;6183343;23;20026;-81
2022/10/04 06:36:18;;;;;;;25.55;13.93;;;;;;;;;;6182289;23;20837;-83
2022/10/04 06:38:45;;;;;;;24.17;13.25;;;;;;;;;;6183497;23;20109;-84
2022/10/04 06:41:28;;;;;;;27.73;14.02;;;;;;;;;;6183565;23;20022;-81
2022/10/04 06:44:04;;;;;;;24.23;13.50;;;;;;;;;;6185255;23;20068;-79
2022/10/04 06:46:36;;;;;;;27.80;14.15;;;;;;;;;;6190309;23;20979;-79
2022/10/04 06:49:21;;;;;;;27.17;14.55;;;;;;;;;;6188492;23;20029;-79
2022/10/04 06:52:06;;;;;;;26.63;14.73;;;;;;;;;;6187487;23;20029;-79
2022/10/04 06:54:47;;;;;;;29.38;14.75;;;;;;;;;;6185603;23;20037;-78
2022/10/04 06:57:17;;;;;;;29.92;14.18;;;;;;;;;;6186051;23;20033;-79
2022/10/04 06:59:49;;;;;;;28.52;14.40;;;;;;;;;;6185612;23;20033;-79
2022/10/04 07:02:26;;;;;;;29.90;14.35;;;;;;;;;;6185910;23;20032;-81
2022/10/04 07:04:59;;;;;;;28.50;14.43;;;;;;;;;;6185454;23;20034;-79
2022/10/04 07:07:36;;;;;;;23.70;14.20;;;;;;;;;;6186111;23;20032;-78
2022/10/04 07:10:02;;;;;;;27.92;15.40;;;;;;;;;;6185139;23;20076;-79
2022/10/04 07:12:30;;;;;;;27.80;14.55;;;;;;;;;;6187341;23;20035;-79
2022/10/04 07:14:59;;;;;;;25.98;15.18;;;;;;;;;;6186544;23;20033;-79
2022/10/04 07:17:32;;;;;;;26.98;14.73;;;;;;;;;;6184997;23;20092;-79
2022/10/04 07:19:59;;;;;;;24.92;13.88;;;;;;;;;;6185051;23;20047;-79
2022/10/04 07:22:35;;;;;;;24.85;13.77;;;;;;;;;;6183398;23;20027;-79
2022/10/04 07:25:13;;;;;;;28.40;13.60;;;;;;;;;;6184071;23;20041;-80
2022/10/04 07:31:02;;;;;;;28.48;13.40;;;;;;;;;;6185461;23;20080;-79
2022/10/04 07:33:31;;;;;;;23.98;13.15;;;;;;;;;;6182521;23;20061;-76
2022/10/04 07:36:09;;;;;;;27.13;13.50;;;;;;;;;;6184889;23;20017;-79
2022/10/04 07:38:38;;;;;;;24.75;13.25;;;;;;;;;;6190204;23;20021;-79
2022/10/04 07:41:09;;;;;;;24.40;13.05;;;;;;;;;;6189241;23;20040;-79
2022/10/04 07:43:48;;;;;;;22.88;13.10;;;;;;;;;;6184954;23;20032;-79
2022/10/04 07:46:14;;;;;;;23.27;12.98;;;;;;;;;;6186709;23;20483;-79
2022/10/04 07:48:42;;;;;;;25.70;12.80;;;;;;;;;;6187059;23;20021;-78
2022/10/04 07:51:31;;;;;;;26.27;12.85;;;;;;;;;;6189202;23;20022;-79
2022/10/04 07:54:00;;;;;;;23.20;11.43;;;;;;;;;;6189050;23;20038;-78
2022/10/04 07:56:32;;;;;;;17.77;10.68;;;;;;;;;;6185846;23;20029;-78
2022/10/04 07:59:18;;;;;;;19.92;10.85;;;;;;;;;;6186111;23;20471;-79
2022/10/04 08:01:54;;;;;;;22.10;10.40;;;;;;;;;;6187467;23;20470;-81
2022/10/04 08:04:28;;;;;;;16.85;9.55;;;;;;;;;;6189350;23;20877;-80
2022/10/04 08:06:58;;;;;;;20.67;10.25;;;;;;;;;;6162381;23;20061;-81
2022/10/04 08:09:24;;;;;;;20.60;9.43;;;;;;;;;;6157205;23;20018;-79
2022/10/04 08:12:01;;;;;;;16.80;9.15;;;;;;;;;;6132848;23;20479;-79
2022/10/04 08:14:44;;;;;;;16.35;8.98;;;;;;;;;;6133062;23;20030;-80
2022/10/04 08:17:20;;;;;;;14.05;8.43;;;;;;;;;;6158727;23;20045;-80
2022/10/04 08:19:52;;;;;;;16.75;8.13;;;;;;;;;;6132157;23;20030;-79
2022/10/04 08:22:22;;;;;;;13.20;7.50;;;;;;;;;;6132314;23;20030;-80
2022/10/04 08:24:55;;;;;;;13.70;6.88;;;;;;;;;;6130415;23;20845;-79
2022/10/04 08:27:36;;;;;;;16.92;7.28;;;;;;;;;;6156430;23;20026;-77
2022/10/04 08:30:14;;;;;;;15.65;7.03;;;;;;;;;;6128969;23;20022;-81
2022/10/04 08:32:49;;;;;;;12.27;7.20;;;;;;;;;;6133372;23;20026;-79
2022/10/04 08:35:18;;;;;;;13.52;6.82;;;;;;;;;;6158233;23;20036;-78
2022/10/04 08:37:45;;;;;;;13.45;6.18;;;;;;;;;;6130678;23;20029;-79
2022/10/04 08:40:22;;;;;;;15.40;6.25;;;;;;;;;;6135250;23;20024;-79
2022/10/04 08:43:00;;;;;;;16.73;6.80;;;;;;;;;;6134348;23;20053;-79
2022/10/04 08:45:45;;;;;;;11.18;6.38;;;;;;;;;;6132105;23;20037;-79
2022/10/04 08:48:23;;;;;;;16.65;7.20;;;;;;;;;;6157032;23;20074;-80
2022/10/04 08:51:09;;;;;;;15.02;6.88;;;;;;;;;;6157092;23;20041;-81
2022/10/04 08:53:39;;;;;;;14.05;6.35;;;;;;;;;;6086179;23;20070;-80
2022/10/04 08:56:24;;;;;;;14.52;6.18;;;;;;;;;;6156057;23;20038;-79
2022/10/04 08:59:09;;;;;;;15.50;7.10;;;;;;;;;;6129358;23;20162;-79
2022/10/04 09:01:57;;;;;;;15.73;6.88;;;;;;;;;;6155290;23;20029;-80
2022/10/04 09:04:42;;;;;;;10.88;5.72;;;;;;;;;;6128670;23;20030;-79
2022/10/04 09:07:27;;;;;;;11.15;6.03;;;;;;;;;;6175506;23;20026;-77
2022/10/04 09:10:20;;;;;;;14.23;6.78;;;;;;;;;;6184996;23;20232;-79
2022/10/04 09:13:12;;;;;;;11.38;6.22;;;;;;;;;;6184314;23;20029;-78
2022/10/04 09:16:08;;;;;;;13.98;6.43;;;;;;;;;;6181835;23;20029;-78
2022/10/04 09:18:52;;;;;;;11.63;6.25;;;;;;;;;;6182352;23;20092;-77
2022/10/04 09:21:49;;;;;;;14.10;5.97;;;;;;;;;;6182912;23;20029;-77
2022/10/04 09:24:56;;;;;;;12.50;6.18;;;;;;;;;;6181377;23;20030;-77
2022/10/04 09:27:50;;;;;;;11.40;5.97;;;;;;;;;;6180836;23;20108;-77
2022/10/04 09:30:47;;;;;;;13.57;6.93;;;;;;;;;;6165439;23;20026;-77
2022/10/04 09:33:41;;;;;;;13.95;6.38;;;;;;;;;;6147014;23;20029;-79
2022/10/04 09:36:41;;;;;;;12.38;6.03;;;;;;;;;;6184395;23;20562;-81
2022/10/04 09:39:46;;;;;;;12.30;5.88;;;;;;;;;;6189081;23;20029;-79
2022/10/04 09:42:42;;;;;;;14.02;6.65;;;;;;;;;;6187237;23;20895;-79
2022/10/04 09:45:28;;;;;;;12.43;6.45;;;;;;;;;;6188478;23;20029;-80
2022/10/04 09:48:04;;;;;;;;;;;;;;;;;;6186826;23;20358;-78
2022/10/04 09:51:18;;;;;;;10.40;5.72;;;;;;;;;;6186730;23;45001;-78
2022/10/04 09:54:02;;;;;;;12.50;6.30;;;;;;;;;;6172917;23;20097;-79
2022/10/04 09:56:36;;;;;;;;;;;;;;;;;;6184996;23;20025;-80
2022/10/04 09:59:14;;;;;;;13.05;6.18;;;;;;;;;;6161971;23;48940;-78
2022/10/04 10:02:08;;;;;;;16.27;6.95;;;;;;;;;;6190180;23;20022;-79
2022/10/04 10:05:01;;;;;;;14.57;6.32;;;;;;;;;;6189782;23;20036;-79
2022/10/04 10:07:44;;;;;;;11.43;6.13;;;;;;;;;;6184920;23;20061;-78
2022/10/04 10:13:38;;;;;;;9.98;6.00;;;;;;;;;;6193922;23;20997;-79
2022/10/04 10:16:24;;;;;;;12.90;6.10;;;;;;;;;;6195777;23;20022;-80
2022/10/04 10:18:57;;;;;;;13.30;6.35;;;;;;;;;;6194536;23;20503;-79
2022/10/04 10:21:37;;;;;;;11.90;6.32;;;;;;;;;;6195346;23;20018;-79
2022/10/04 10:24:22;;;;;;;13.60;6.03;;;;;;;;;;6197314;23;20033;-79
2022/10/04 10:27:07;;;;;;;12.73;6.72;;;;;;;;;;6196515;23;20033;-79
2022/10/04 10:30:02;;;;;;;11.25;6.32;;;;;;;;;;6195557;23;20035;-79
2022/10/04 10:32:43;;;;;;;12.73;6.10;;;;;;;;;;6165329;23;20029;-79
2022/10/04 10:35:12;;;;;;;14.63;6.28;;;;;;;;;;6192340;23;20260;-79
2022/10/04 10:37:57;;;;;;;12.40;6.10;;;;;;;;;;6194994;23;20036;-80
2022/10/04 10:40:48;;;;;;;11.45;5.88;;;;;;;;;;6193518;23;20025;-79
2022/10/04 10:43:19;;;;;;;11.80;5.88;;;;;;;;;;6195939;23;20013;-80
2022/10/04 10:45:52;;;;;;;14.90;6.13;;;;;;;;;;6193234;23;20881;-79
2022/10/04 10:48:21;;;;;;;11.07;5.60;;;;;;;;;;6196054;23;20037;-79
2022/10/04 10:51:00;;;;;;;11.88;5.53;;;;;;;;;;6195584;23;20006;-79
2022/10/04 10:53:46;;;;;;;13.05;5.20;;;;;;;;;;6192673;23;20025;-79
2022/10/04 10:56:22;;;;;;;10.30;4.43;;;;;;;;;;6193963;23;20024;-79
2022/10/04 10:59:04;;;;;;;9.38;4.85;;;;;;;;;;6198751;23;20017;-79
2022/10/04 11:01:49;;;;;;;10.60;5.50;;;;;;;;;;6196888;23;20027;-79
2022/10/04 11:04:24;;;;;;;14.57;5.07;;;;;;;;;;6191273;23;20030;-79
2022/10/04 11:07:03;;;;;;;11.18;4.97;;;;;;;;;;6196718;23;20021;-79
2022/10/04 11:09:32;;;;;;;11.32;5.60;;;;;;;;;;6197971;23;20022;-79
2022/10/04 11:12:19;;;;;;;11.00;5.13;;;;;;;;;;6200168;23;20009;-79
2022/10/04 11:14:54;;;;;;;9.40;4.90;;;;;;;;;;6197226;23;20105;-78
2022/10/04 11:17:24;;;;;;;7.70;4.80;;;;;;;;;;6197398;23;20875;-79
2022/10/04 11:19:50;;;;;;;9.98;5.05;;;;;;;;;;6199648;23;20028;-79
2022/10/04 11:22:23;;;;;;;8.98;4.75;;;;;;;;;;6199382;23;20018;-80
2022/10/04 11:24:52;;;;;;;11.38;4.70;;;;;;;;;;6197256;23;20018;-79
2022/10/04 11:27:27;;;;;;;10.93;4.78;;;;;;;;;;6196525;23;20014;-79
2022/10/04 11:30:02;;;;;;;10.55;4.90;;;;;;;;;;6197471;23;20077;-80
2022/10/04 11:32:44;;;;;;;11.93;5.30;;;;;;;;;;6196941;23;20029;-80
2022/10/04 11:35:29;;;;;;;11.07;4.60;;;;;;;;;;6197323;23;20025;-79
2022/10/04 11:38:14;;;;;;;11.45;4.25;;;;;;;;;;6198118;23;20013;-79
2022/10/04 11:40:40;;;;;;;10.57;4.43;;;;;;;;;;6197895;23;20024;-79
2022/10/04 11:43:07;;;;;;;10.05;4.40;;;;;;;;;;6198816;23;20021;-79
2022/10/04 11:45:45;;;;;;;9.43;4.53;;;;;;;;;;6196983;23;20029;-79
2022/10/04 11:48:18;;;;;;;10.77;4.50;;;;;;;;;;6197204;23;20076;-79
2022/10/04 11:51:07;;;;;;;9.50;4.32;;;;;;;;;;6198819;23;20022;-79
2022/10/04 11:53:38;;;;;;;11.43;4.82;;;;;;;;;;6199269;23;20039;-79
2022/10/04 11:56:07;;;;;;;8.25;4.63;;;;;;;;;;6199765;23;20022;-79
2022/10/04 11:58:40;;;;;;;12.53;4.77;;;;;;;;;;6198268;23;20025;-79
2022/10/04 12:01:10;;;;;;;10.40;4.90;;;;;;;;;;6198979;23;20014;-80
2022/10/04 12:03:55;;;;;;;10.13;4.28;;;;;;;;;;6200391;23;20029;-80
2022/10/04 12:06:21;;;;;;;12.20;4.20;;;;;;;;;;6196325;23;20030;-79
2022/10/04 12:09:04;;;;;;;12.80;5.18;;;;;;;;;;6144730;23;20020;-80
2022/10/04 12:14:32;;;;;;;9.27;4.85;;;;;;;;;;6170258;23;20080;-79
2022/10/04 12:17:07;;;;;;;11.48;5.05;;;;;;;;;;6143371;23;20074;-80
2022/10/04 12:19:52;;;;;;;10.48;4.70;;;;;;;;;;6143933;23;20021;-79
2022/10/04 12:22:21;;;;;;;8.55;4.40;;;;;;;;;;6144528;23;20014;-79
2022/10/04 12:24:51;;;;;;;9.93;4.60;;;;;;;;;;6144115;23;20902;-79
2022/10/04 12:27:27;;;;;;;12.13;4.97;;;;;;;;;;6144240;23;20022;-79
2022/10/04 12:30:09;;;;;;;9.82;4.32;;;;;;;;;;6143153;23;20962;-79
2022/10/04 12:32:38;;;;;;;8.00;4.15;;;;;;;;;;6168871;23;20133;-80
2022/10/04 12:35:18;;;;;;;11.77;3.72;;;;;;;;;;6142238;23;20014;-80
2022/10/04 12:38:05;;;;;;;10.20;4.28;;;;;;;;;;6145282;23;20022;-80
2022/10/04 12:40:54;;;;;;;9.73;4.20;;;;;;;;;;6145666;23;20017;-80
2022/10/04 12:43:20;;;;;;;8.38;3.35;;;;;;;;;;6168928;23;20030;-80
2022/10/04 12:46:05;;;;;;;8.85;3.72;;;;;;;;;;6142599;23;20022;-79
2022/10/04 12:48:32;;;;;;;9.52;3.88;;;;;;;;;;6167067;23;20026;-79
2022/10/04 12:51:10;;;;;;;10.45;3.63;;;;;;;;;;6144609;23;20018;-80
2022/10/04 12:53:46;;;;;;;8.88;3.80;;;;;;;;;;6144479;23;20022;-80
2022/10/04 12:56:20;;;;;;;9.43;3.72;;;;;;;;;;6143267;23;20464;-80
2022/10/04 12:58:50;;;;;;;10.75;3.50;;;;;;;;;;6144259;23;20010;-79
2022/10/04 13:01:31;;;;;;;8.25;3.60;;;;;;;;;;6143963;23;20025;-80
2022/10/04 13:04:16;;;;;;;8.52;3.75;;;;;;;;;;6144718;23;20077;-80
2022/10/04 13:06:42;;;;;;;12.70;3.92;;;;;;;;;;6151947;23;20021;-80
2022/10/04 13:09:15;;;;;;;9.85;3.67;;;;;;;;;;6198153;23;20029;-80
2022/10/04 13:11:51;;;;;;;8.15;3.58;;;;;;;;;;6198099;23;20055;-80
2022/10/04 13:14:17;;;;;;;8.15;3.40;;;;;;;;;;6198251;23;20037;-81
2022/10/04 13:16:57;;;;;;;10.93;3.97;;;;;;;;;;6198527;23;20010;-80
2022/10/04 13:19:56;;;;;;;14.95;3.70;;;;;;;;;;6197600;23;20025;-80
2022/10/04 13:22:31;;;;;;;7.47;3.72;;;;;;;;;;6198549;23;20018;-80
2022/10/04 13:25:17;;;;;;;10.13;3.30;;;;;;;;;;6198972;23;20013;-79
2022/10/04 13:27:55;;;;;;;7.53;3.50;;;;;;;;;;6198489;23;20014;-80
2022/10/04 13:30:28;;;;;;;8.02;3.95;;;;;;;;;;6199027;23;20022;-80
2022/10/04 13:33:13;;;;;;;8.10;3.50;;;;;;;;;;6196550;23;20029;-80
2022/10/04 13:35:52;;;;;;;9.88;4.13;;;;;;;;;;6196482;23;20033;-80
2022/10/04 13:38:19;;;;;;;7.40;3.70;;;;;;;;;;6199644;23;20085;-80
2022/10/04 13:41:00;;;;;;;6.90;3.30;;;;;;;;;;6197942;23;20021;-80
2022/10/04 13:43:27;;;;;;;7.32;3.28;;;;;;;;;;6197940;23;20021;-79
2022/10/04 13:46:05;;;;;;;7.53;3.83;;;;;;;;;;6196314;23;20037;-80
2022/10/04 13:48:40;;;;;;;7.35;3.50;;;;;;;;;;6198304;23;20085;-80
2022/10/04 13:51:06;;;;;;;9.73;3.83;;;;;;;;;;6199937;23;20037;-80
2022/10/04 13:56:39;;;;;;;12.13;4.35;;;;;;;;;;6201311;23;20014;-80
2022/10/04 13:59:13;;;;;;;10.00;3.97;;;;;;;;;;6202331;23;20064;-81
2022/10/04 14:02:01;;;;;;;10.48;4.32;;;;;;;;;;6199484;23;20444;-80
2022/10/04 14:04:43;;;;;;;9.02;4.15;;;;;;;;;;6198716;23;20437;-80
2022/10/04 14:07:29;;;;;;;8.27;3.88;;;;;;;;;;6198680;23;20013;-81
2022/10/04 14:10:14;;;;;;;8.45;3.40;;;;;;;;;;6200007;23;20026;-81
2022/10/04 14:12:59;;;;;;;9.77;4.15;;;;;;;;;;6196946;23;20026;-80
2022/10/04 14:15:40;;;;;;;9.40;4.05;;;;;;;;;;6198883;23;20026;-80
2022/10/04 14:18:15;;;;;;;10.95;4.20;;;;;;;;;;6199490;23;20025;-81
2022/10/04 14:21:00;;;;;;;10.20;4.68;;;;;;;;;;6200028;23;20026;-81
2022/10/04 14:23:47;;;;;;;8.98;4.22;;;;;;;;;;6199727;23;20027;-80
2022/10/04 14:26:36;;;;;;;8.82;4.00;;;;;;;;;;6199666;23;20036;-81
2022/10/04 14:29:02;;;;;;;9.65;4.25;;;;;;;;;;6199685;23;20124;-80
2022/10/04 14:31:34;;;;;;;8.40;3.67;;;;;;;;;;6198052;23;20051;-80
2022/10/04 14:34:08;;;;;;;11.73;3.75;;;;;;;;;;6199412;23;20029;-80
2022/10/04 14:36:54;;;;;;;10.55;4.10;;;;;;;;;;6197665;23;20009;-81
2022/10/04 14:39:40;;;;;;;7.50;4.03;;;;;;;;;;6198876;23;20017;-80
2022/10/04 14:42:13;;;;;;;9.02;4.32;;;;;;;;;;6199858;23;20053;-80
2022/10/04 14:44:54;;;;;;;8.75;3.80;;;;;;;;;;6192138;23;20018;-80
2022/10/04 14:47:27;;;;;;;9.68;3.95;;;;;;;;;;6194797;23;20021;-80
2022/10/04 14:50:14;;;;;;;8.35;3.88;;;;;;;;;;6190054;23;20025;-79
2022/10/04 14:52:52;;;;;;;11.05;4.30;;;;;;;;;;6196652;23;20799;-80
2022/10/04 14:55:37;;;;;;;11.07;4.50;;;;;;;;;;6193331;23;20029;-81
2022/10/04 14:58:23;;;;;;;9.73;4.15;;;;;;;;;;6196248;23;20022;-80
2022/10/04 15:00:58;;;;;;;7.53;3.80;;;;;;;;;;6189834;23;20045;-80
2022/10/04 15:03:29;;;;;;;9.75;4.07;;;;;;;;;;6193939;23;20041;-80
2022/10/04 15:05:58;;;;;;;;;;;;;;;;;;6194985;23;20021;-81
2022/10/04 15:08:36;;;;;;;9.00;3.47;;;;;;;;;;6167157;23;43578;-81
2022/10/04 15:11:06;;;;;;;8.52;3.00;;;;;;;;;;6168699;23;20046;-81
2022/10/04 15:13:35;;;;;;;8.70;3.63;;;;;;;;;;6144785;23;20026;-81
2022/10/04 15:16:08;;;;;;;8.80;3.22;;;;;;;;;;6167153;23;20029;-81
2022/10/04 15:18:59;;;;;;;7.97;3.88;;;;;;;;;;6144813;23;20018;-81
2022/10/04 15:22:01;;;;;;;8.00;3.28;;;;;;;;;;6144385;23;20026;-80
2022/10/04 15:24:29;;;;;;;6.05;3.05;;;;;;;;;;6049989;23;20045;-81
2022/10/04 15:26:55;;;;;;;8.32;3.75;;;;;;;;;;6145449;23;20014;-81
2022/10/04 15:29:27;;;;;;;10.45;4.18;;;;;;;;;;6168468;23;20018;-81